Overseas Los Angeles — WABS — position and weather

sailwx.info

Track history (hours):
 
Tides and Currents Weather Stations Pressure Air Temp Water Temp Dewpoint Dewpoint Depression Visibility Wind Speed Wind Dir Waves Ship Positions

Overseas Los Angeles

Owner: ASC Leasing III, Inc., KENNETT SQUARE, PA. More information available from US FCC via Universal Licensing System and Coast Guard Vessel Documentation Center.

Last reported at 2018-Jul-23 02:22 UTC. Time now 2018-Jul-23 11:29 UTC.
Position N 48°14' W 123°56'.

Length 183 m; draft 8.7 m.

Type: Tanker. MMSI: 367134000.

Date/timePositionNaut miles runAvg speedWind from/ knotsBaromVisibWave heightAir tempDewpointWater temp
2018-Jul-23 02:22N 48°14' W 123°56'514.0
2018-Jul-23 01:59N 48°16' W 124°04'714.1
2018-Jul-23 01:30N 48°19' W 124°13'714.2
2018-Jul-23 01:00N 48°22' W 124°23'714.0
2018-Jul-23 00:30N 48°25' W 124°32'713.8
2018-Jul-23 00:00N 48°28' W 124°42'713.3
2018-Jul-22 23:30N 48°28' W 124°52'613.2
2018-Jul-22 23:00N 48°27' W 125°01'714.9
2018-Jul-22 22:30N 48°20' W 125°07'814.9
2018-Jul-22 21:58N 48°14' W 125°14'714.6
2018-Jul-22 21:30N 48°09' W 125°21'714.7
2018-Jul-22 21:00N 48°03' W 125°28'1214.5
2018-Jul-22 20:11N 47°54' W 125°39'314.0
2018-Jul-22 20:00N 47°52' W 125°41'814.5
2018-Jul-22 19:29N 47°46' W 125°48'714.6
2018-Jul-22 19:00N 47°40' W 125°55'713.8
2018-Jul-22 18:30N 47°34' W 125°59'610.8
2018-Jul-22 18:00N 47°30' W 125°54'5145.6 340 / 201023.010.8 14.812.815.7
2018-Jul-22 17:57N 47°27' W 126°00'4 8.6
2018-Jul-22 17:29N 47°23' W 126°00'612.2
2018-Jul-22 17:00N 47°17' W 126°01'913.3
2018-Jul-22 16:18N 47°07' W 125°60'713.4
2018-Jul-22 15:49N 47°01' W 125°59'1113.4
2018-Jul-22 14:59N 46°50' W 125°59'613.1
2018-Jul-22 14:30N 46°43' W 125°59'713.0
2018-Jul-22 13:58N 46°37' W 125°59'712.8
2018-Jul-22 13:23N 46°29' W 125°59'511.8
2018-Jul-22 13:00N 46°25' W 125°59'611.6
2018-Jul-22 12:31N 46°19' W 125°59'1113.0
2018-Jul-22 11:41N 46°08' W 125°58'413.2
2018-Jul-22 11:25N 46°05' W 125°58'613.1
2018-Jul-22 10:57N 45°59' W 125°58'713.2
2018-Jul-22 10:26N 45°52' W 125°58'912.9
2018-Jul-22 09:46N 45°43' W 125°58'312.8
2018-Jul-22 09:30N 45°40' W 125°58'712.7
2018-Jul-22 08:57N 45°33' W 125°58'612.7
2018-Jul-22 08:29N 45°27' W 125°58'612.6
2018-Jul-22 08:00N 45°21' W 125°58'612.3
2018-Jul-22 07:30N 45°15' W 125°58'912.4
2018-Jul-22 06:45N 45°05' W 125°60'10012.5
2018-Jul-21 22:45N 43°25' W 125°53'299 8.2
2018-Jul-20 10:15N 38°30' W 124°48'3 9.6
2018-Jul-20 09:54N 38°28' W 124°44'410.0
2018-Jul-20 09:30N 38°25' W 124°41'510.0
2018-Jul-20 09:00N 38°22' W 124°36'510.0
2018-Jul-20 08:30N 38°18' W 124°32'510.4
2018-Jul-20 07:59N 38°14' W 124°27'5 9.8
2018-Jul-20 07:30N 38°11' W 124°23'5 9.8
2018-Jul-20 07:00N 38°07' W 124°19'510.4
2018-Jul-20 06:30N 38°03' W 124°14'510.7
2018-Jul-20 06:00N 37°60' W 124°09'510.7
2018-Jul-20 05:30N 37°56' W 124°04'510.5
2018-Jul-20 05:00N 37°53' W 123°59'611.2
2018-Jul-20 04:30N 37°50' W 123°53'611.8
2018-Jul-20 04:00N 37°47' W 123°46'611.7
2018-Jul-20 03:30N 37°44' W 123°40'612.1
2018-Jul-20 03:00N 37°41' W 123°33'611.8
2018-Jul-20 02:30N 37°38' W 123°27'611.7
2018-Jul-20 02:00N 37°35' W 123°21'611.7
2018-Jul-20 01:30N 37°34' W 123°13'612.2
2018-Jul-20 01:00N 37°34' W 123°06'5 9.8
2018-Jul-20 00:30N 37°36' W 123°00'5 9.7
2018-Jul-20 00:00N 37°39' W 122°55'510.0
2018-Jul-19 23:30N 37°42' W 122°50'5 9.6
2018-Jul-19 23:00N 37°43' W 122°44'4 7.7
2018-Jul-19 22:30N 37°46' W 122°40'612.5
2018-Jul-19 22:00N 37°48' W 122°33'611.6
2018-Jul-19 21:30N 37°51' W 122°26'5 9.1
2018-Jul-19 21:00N 37°55' W 122°25'1 1.4
2018-Jul-19 20:30N 37°55' W 122°25'0 0.0
2018-Jul-19 20:00N 37°55' W 122°25'0 0.0
2018-Jul-19 19:30N 37°55' W 122°25'0 0.0
2018-Jul-19 19:00N 37°55' W 122°25'0 0.0
2018-Jul-19 18:27N 37°55' W 122°25'0 0.0
2018-Jul-19 17:57N 37°55' W 122°25'0 0.0
2018-Jul-19 17:30N 37°55' W 122°25'0 0.0
2018-Jul-19 17:00N 37°55' W 122°25'0 0.0
2018-Jul-19 16:30N 37°55' W 122°25'0 0.0
2018-Jul-19 16:00N 37°55' W 122°25'0 0.0
2018-Jul-19 15:30N 37°55' W 122°25'0 0.0
2018-Jul-19 15:00N 37°55' W 122°25'0 0.0
2018-Jul-19 14:30N 37°55' W 122°25'0 0.0
2018-Jul-19 13:27N 37°55' W 122°25'0 0.0
2018-Jul-19 13:00N 37°55' W 122°25'0 0.0
2018-Jul-19 12:30N 37°55' W 122°25'0 0.0
2018-Jul-19 12:00N 37°55' W 122°25'0 0.0
2018-Jul-19 11:30N 37°55' W 122°25'0 0.0
2018-Jul-19 11:00N 37°55' W 122°25'0 0.0
2018-Jul-19 10:30N 37°55' W 122°25'0 0.0
2018-Jul-19 10:00N 37°55' W 122°25'0 0.0
2018-Jul-19 09:27N 37°55' W 122°25'0 0.0
2018-Jul-19 09:00N 37°55' W 122°25'0 0.0
2018-Jul-19 08:30N 37°55' W 122°25'0 0.0
2018-Jul-19 07:57N 37°55' W 122°25'0 0.0
2018-Jul-19 07:30N 37°55' W 122°25'0 0.0
2018-Jul-19 07:00N 37°55' W 122°25'0 0.0
2018-Jul-19 06:30N 37°55' W 122°25'0 0.0
2018-Jul-19 06:00N 37°55' W 122°25'0 0.0
2018-Jul-19 05:30N 37°55' W 122°25'0 0.0
2018-Jul-19 05:00N 37°55' W 122°25'0 0.0
2018-Jul-19 04:30N 37°55' W 122°25'0 0.0
2018-Jul-19 04:00N 37°55' W 122°25'0 0.0
2018-Jul-19 03:30N 37°55' W 122°25'0 0.0
2018-Jul-19 03:00N 37°55' W 122°25'0 0.0
2018-Jul-19 02:30N 37°55' W 122°25'0 0.0
2018-Jul-19 02:00N 37°55' W 122°25'0 0.0
2018-Jul-19 01:30N 37°55' W 122°25'0 0.1
2018-Jul-19 01:00N 37°55' W 122°25'2 4.9
2018-Jul-19 00:30N 37°57' W 122°27'5 9.1
2018-Jul-19 00:00N 38°01' W 122°24'5 9.7
2018-Jul-18 23:30N 38°03' W 122°18'5 8.2
2018-Jul-18 22:57N 38°04' W 122°13'4 8.1
2018-Jul-18 22:30N 38°02' W 122°09'1 0.0
2018-Jul-17 14:46N 38°02' W 122°08'2 6.7
2018-Jul-17 14:27N 38°02' W 122°10'3 7.6
2018-Jul-17 14:00N 38°04' W 122°14'510.1
2018-Jul-17 13:30N 38°03' W 122°21'5 9.7
2018-Jul-17 13:00N 37°60' W 122°25'4 8.2
2018-Jul-17 12:30N 37°55' W 122°25'3 5.8
2018-Jul-17 12:00N 37°55' W 122°22'0 0.5
2018-Jul-17 11:28N 37°55' W 122°22'0 0.0
2018-Jul-17 10:58N 37°55' W 122°22'0 0.0
2018-Jul-17 10:25N 37°55' W 122°22'0 0.0
2018-Jul-17 09:58N 37°55' W 122°22'0 0.0
2018-Jul-17 09:28N 37°55' W 122°22'0 0.0
2018-Jul-17 08:55N 37°55' W 122°22'0 0.0
2018-Jul-17 08:28N 37°55' W 122°22'0 0.0
2018-Jul-17 07:58N 37°55' W 122°22'0 0.0
2018-Jul-17 07:28N 37°55' W 122°22'0 0.0
2018-Jul-17 06:58N 37°55' W 122°22'0 0.0
2018-Jul-17 06:25N 37°55' W 122°22'0 0.0
2018-Jul-17 05:58N 37°55' W 122°22'0 0.0
2018-Jul-17 05:28N 37°55' W 122°22'0 0.0
2018-Jul-17 04:58N 37°55' W 122°22'0 0.0
2018-Jul-17 04:28N 37°55' W 122°22'0 0.0
2018-Jul-17 03:58N 37°55' W 122°22'0 0.0
2018-Jul-17 03:28N 37°55' W 122°22'0 0.0
2018-Jul-17 02:58N 37°55' W 122°22'0 0.0
2018-Jul-17 02:28N 37°55' W 122°22'0 0.0
2018-Jul-17 01:58N 37°55' W 122°22'0 0.0
2018-Jul-17 01:28N 37°55' W 122°22'0 0.0
2018-Jul-17 00:58N 37°55' W 122°22'0 0.0
2018-Jul-17 00:28N 37°55' W 122°22'0 0.0
2018-Jul-16 23:28N 37°55' W 122°22'0 0.0
2018-Jul-16 22:58N 37°55' W 122°22'0 0.0
2018-Jul-16 22:28N 37°55' W 122°22'0 0.0
2018-Jul-16 21:58N 37°55' W 122°22'0 0.0
2018-Jul-16 21:28N 37°55' W 122°22'0 0.0
2018-Jul-16 20:58N 37°55' W 122°22'0 0.0
2018-Jul-16 20:25N 37°55' W 122°22'0 0.0
2018-Jul-16 19:58N 37°55' W 122°22'0 0.0
2018-Jul-16 19:28N 37°55' W 122°22'0 0.0
2018-Jul-16 18:58N 37°55' W 122°22'0 0.0
2018-Jul-16 18:28N 37°55' W 122°22'0 0.0
2018-Jul-16 17:55N 37°55' W 122°22'0 0.0
2018-Jul-16 17:28N 37°55' W 122°22'0 0.0
2018-Jul-16 16:58N 37°55' W 122°22'0 0.0
2018-Jul-16 16:28N 37°55' W 122°22'0 0.0
2018-Jul-16 15:58N 37°55' W 122°22'0 0.0
2018-Jul-16 15:28N 37°55' W 122°22'0 0.0
2018-Jul-16 14:58N 37°55' W 122°22'0 0.0
2018-Jul-16 14:28N 37°55' W 122°22'0 0.0
2018-Jul-16 13:55N 37°55' W 122°22'0 0.0
2018-Jul-16 13:28N 37°55' W 122°22'0 0.0
2018-Jul-16 12:58N 37°55' W 122°22'0 0.0
2018-Jul-16 12:28N 37°55' W 122°22'0 0.0
2018-Jul-16 11:58N 37°55' W 122°22'0 0.0
2018-Jul-16 11:28N 37°55' W 122°22'0 0.0
2018-Jul-16 10:58N 37°55' W 122°22'0 0.0
2018-Jul-16 10:28N 37°55' W 122°22'0 0.0
2018-Jul-16 09:58N 37°55' W 122°22'0 0.0
2018-Jul-16 09:28N 37°55' W 122°22'0 0.0
2018-Jul-16 08:58N 37°55' W 122°22'0 0.0
2018-Jul-16 08:28N 37°55' W 122°22'0 0.0
2018-Jul-16 07:58N 37°55' W 122°22'0 0.1
2018-Jul-16 07:30N 37°55' W 122°22'1 1.2
2018-Jul-16 07:00N 37°54' W 122°22'3 5.7
2018-Jul-16 06:30N 37°55' W 122°25'4 8.3
2018-Jul-16 06:00N 37°51' W 122°24'5 9.6
2018-Jul-16 05:30N 37°49' W 122°30'612.4
2018-Jul-16 05:00N 37°46' W 122°37'611.2
2018-Jul-16 04:30N 37°43' W 122°43'5 9.9
2018-Jul-16 04:00N 37°40' W 122°48'510.0
2018-Jul-16 03:30N 37°38' W 122°53'5 9.8
2018-Jul-16 03:00N 37°35' W 122°58'510.5
2018-Jul-16 02:31N 37°32' W 123°04'714.6
2018-Jul-16 02:00N 37°35' W 123°13'714.7
2018-Jul-16 01:31N 37°38' W 123°21'714.9
2018-Jul-16 01:01N 37°40' W 123°30'815.0
2018-Jul-16 00:31N 37°44' W 123°38'714.9
2018-Jul-16 00:01N 37°48' W 123°46'714.9
2018-Jul-15 23:31N 37°52' W 123°54'714.9
2018-Jul-15 23:00N 37°56' W 124°02'714.6
2018-Jul-15 22:30N 38°00' W 124°10'714.2
2018-Jul-15 22:00N 38°05' W 124°16'714.1
2018-Jul-15 21:30N 38°10' W 124°22'714.1
2018-Jul-15 21:00N 38°15' W 124°28'4 8.8
2018-Jul-15 20:30N 38°18' W 124°33'612.6
2018-Jul-15 20:00N 38°23' W 124°38'714.4
2018-Jul-15 19:30N 38°28' W 124°45'715.0
2018-Jul-15 19:00N 38°33' W 124°52'815.2
2018-Jul-15 18:30N 38°39' W 124°58'814.9
2018-Jul-15 18:00N 38°44' W 125°05'91471.4
2018-Jul-15 18:00N 38°36' W 125°00'1632.8 360 / 121017.010.8 15.013.315.6
2018-Jul-15 17:30N 38°49' W 125°11'714.3
2018-Jul-15 17:00N 38°55' W 125°17'715.0
2018-Jul-15 16:30N 39°03' W 125°18'814.9
2018-Jul-15 15:59N 39°10' W 125°20'914.4
2018-Jul-15 15:22N 39°19' W 125°22'514.9
2018-Jul-15 15:00N 39°24' W 125°23'1315.0
2018-Jul-15 14:08N 39°37' W 125°25'614.9
2018-Jul-15 13:46N 39°43' W 125°26'5715.4
2018-Jul-15 10:05N 40°39' W 125°36'415.4
2018-Jul-15 09:50N 40°43' W 125°37'515.1
2018-Jul-15 09:30N 40°48' W 125°37'1314.7
2018-Jul-15 08:36N 41°01' W 125°40'2515.4
2018-Jul-15 06:58N 41°26' W 125°45'714.9
2018-Jul-15 06:30N 41°32' W 125°46'3114.9
2018-Jul-15 04:27N 42°03' W 125°49'4015.1
2018-Jul-15 01:48N 42°43' W 125°50'515.1
2018-Jul-15 01:30N 42°47' W 125°51'1115.0
2018-Jul-15 00:44N 42°59' W 125°51'1015.1
2018-Jul-15 00:06N 43°08' W 125°52'115.3
2018-Jul-15 00:00N 43°10' W 125°52'1215.5
2018-Jul-14 23:13N 43°22' W 125°52'315.5
2018-Jul-14 23:00N 43°25' W 125°52'815.4
2018-Jul-14 22:30N 43°33' W 125°53'915.3
2018-Jul-14 21:56N 43°42' W 125°53'815.3
2018-Jul-14 21:25N 43°50' W 125°53'615.1
2018-Jul-14 21:00N 43°56' W 125°53'4715.3
2018-Jul-14 17:54N 44°43' W 125°54'1515.2
2018-Jul-14 16:55N 44°58' W 125°54'615.0
2018-Jul-14 16:30N 45°05' W 125°55'814.9
2018-Jul-14 15:59N 45°12' W 125°56'714.8
2018-Jul-14 15:30N 45°19' W 125°56'714.9
2018-Jul-14 15:00N 45°27' W 125°56'815.0
2018-Jul-14 14:30N 45°34' W 125°57'1515.1
2018-Jul-14 13:29N 45°50' W 125°57'714.8
2018-Jul-14 13:00N 45°57' W 125°57'715.1
2018-Jul-14 12:30N 46°04' W 125°57'1215.3
2018-Jul-14 11:42N 46°17' W 125°57'315.2
2018-Jul-14 11:31N 46°20' W 125°57'815.1
2018-Jul-14 11:00N 46°27' W 125°57'815.6
2018-Jul-14 10:30N 46°35' W 125°57'815.4
2018-Jul-14 09:58N 46°43' W 125°57'1115.3
2018-Jul-14 09:15N 46°54' W 125°58'415.2
2018-Jul-14 09:00N 46°58' W 125°58'815.0
2018-Jul-14 08:30N 47°05' W 125°58'815.1
2018-Jul-14 08:00N 47°13' W 125°58'815.1
2018-Jul-14 07:30N 47°21' W 125°59'815.1
2018-Jul-14 06:59N 47°28' W 125°58'715.1
2018-Jul-14 06:30N 47°36' W 125°58'714.6
2018-Jul-14 06:00N 47°42' W 125°52'2414.0
2018-Jul-14 04:19N 48°01' W 125°32'714.9
2018-Jul-14 03:53N 48°07' W 125°27'614.9
2018-Jul-14 03:29N 48°11' W 125°21'714.2
2018-Jul-14 03:00N 48°17' W 125°15'714.0
2018-Jul-14 02:30N 48°23' W 125°09'814.6
2018-Jul-14 01:58N 48°29' W 125°02'614.0
2018-Jul-14 01:30N 48°30' W 124°53'714.5
2018-Jul-14 01:00N 48°30' W 124°42'713.7
2018-Jul-14 00:30N 48°27' W 124°32'713.4
2018-Jul-14 00:00N 48°25' W 124°23'612.6
2018-Jul-13 23:30N 48°22' W 124°14'612.4
2018-Jul-13 23:00N 48°20' W 124°06'712.6
2018-Jul-13 22:29N 48°17' W 123°57'2811.3
2018-Jul-13 20:02N 48°10' W 123°16'114.4
2018-Jul-13 19:57N 48°11' W 123°15'614.5
2018-Jul-13 19:31N 48°16' W 123°09'713.6
2018-Jul-13 19:00N 48°20' W 123°00'714.2
2018-Jul-13 18:30N 48°23' W 122°51'611.6
2018-Jul-13 18:00N 48°28' W 122°45'713.4
2018-Jul-13 17:31N 48°34' W 122°45'713.2
2018-Jul-13 17:00N 48°41' W 122°43'713.4
2018-Jul-13 16:30N 48°47' W 122°46'3 6.3
2018-Jul-13 15:57N 48°51' W 122°46'  
Track history (hours):
 
Tides and Currents Weather Stations Pressure Air Temp Water Temp Dewpoint Dewpoint Depression Visibility Wind Speed Wind Dir Waves Ship Positions

Overseas Los Angeles

Owner: ASC Leasing III, Inc., KENNETT SQUARE, PA. More information available from US FCC via Universal Licensing System and Coast Guard Vessel Documentation Center.

Last reported at 2018-Jul-23 02:22 UTC. Time now 2018-Jul-23 11:29 UTC.
Position N 48°14' W 123°56'.

Length 183 m; draft 8.7 m.

Type: Tanker. MMSI: 367134000.

Date/timePositionNaut miles runAvg speedWind from/ knotsBaromVisibWave heightAir tempDewpointWater temp
2018-Jul-23 02:22N 48°14' W 123°56'514.0
2018-Jul-23 01:59N 48°16' W 124°04'714.1
2018-Jul-23 01:30N 48°19' W 124°13'714.2
2018-Jul-23 01:00N 48°22' W 124°23'714.0
2018-Jul-23 00:30N 48°25' W 124°32'713.8
2018-Jul-23 00:00N 48°28' W 124°42'713.3
2018-Jul-22 23:30N 48°28' W 124°52'613.2
2018-Jul-22 23:00N 48°27' W 125°01'714.9
2018-Jul-22 22:30N 48°20' W 125°07'814.9
2018-Jul-22 21:58N 48°14' W 125°14'714.6
2018-Jul-22 21:30N 48°09' W 125°21'714.7
2018-Jul-22 21:00N 48°03' W 125°28'1214.5
2018-Jul-22 20:11N 47°54' W 125°39'314.0
2018-Jul-22 20:00N 47°52' W 125°41'814.5
2018-Jul-22 19:29N 47°46' W 125°48'714.6
2018-Jul-22 19:00N 47°40' W 125°55'713.8
2018-Jul-22 18:30N 47°34' W 125°59'610.8
2018-Jul-22 18:00N 47°30' W 125°54'5145.6 340 / 201023.010.8 14.812.815.7
2018-Jul-22 17:57N 47°27' W 126°00'4 8.6
2018-Jul-22 17:29N 47°23' W 126°00'612.2
2018-Jul-22 17:00N 47°17' W 126°01'913.3
2018-Jul-22 16:18N 47°07' W 125°60'713.4
2018-Jul-22 15:49N 47°01' W 125°59'1113.4
2018-Jul-22 14:59N 46°50' W 125°59'613.1
2018-Jul-22 14:30N 46°43' W 125°59'713.0
2018-Jul-22 13:58N 46°37' W 125°59'712.8
2018-Jul-22 13:23N 46°29' W 125°59'511.8
2018-Jul-22 13:00N 46°25' W 125°59'611.6
2018-Jul-22 12:31N 46°19' W 125°59'1113.0
2018-Jul-22 11:41N 46°08' W 125°58'413.2
2018-Jul-22 11:25N 46°05' W 125°58'613.1
2018-Jul-22 10:57N 45°59' W 125°58'713.2
2018-Jul-22 10:26N 45°52' W 125°58'912.9
2018-Jul-22 09:46N 45°43' W 125°58'312.8
2018-Jul-22 09:30N 45°40' W 125°58'712.7
2018-Jul-22 08:57N 45°33' W 125°58'612.7
2018-Jul-22 08:29N 45°27' W 125°58'612.6
2018-Jul-22 08:00N 45°21' W 125°58'612.3
2018-Jul-22 07:30N 45°15' W 125°58'912.4
2018-Jul-22 06:45N 45°05' W 125°60'10012.5
2018-Jul-21 22:45N 43°25' W 125°53'299 8.2
2018-Jul-20 10:15N 38°30' W 124°48'3 9.6
2018-Jul-20 09:54N 38°28' W 124°44'410.0
2018-Jul-20 09:30N 38°25' W 124°41'510.0
2018-Jul-20 09:00N 38°22' W 124°36'510.0
2018-Jul-20 08:30N 38°18' W 124°32'510.4
2018-Jul-20 07:59N 38°14' W 124°27'5 9.8
2018-Jul-20 07:30N 38°11' W 124°23'5 9.8
2018-Jul-20 07:00N 38°07' W 124°19'510.4
2018-Jul-20 06:30N 38°03' W 124°14'510.7
2018-Jul-20 06:00N 37°60' W 124°09'510.7
2018-Jul-20 05:30N 37°56' W 124°04'510.5
2018-Jul-20 05:00N 37°53' W 123°59'611.2
2018-Jul-20 04:30N 37°50' W 123°53'611.8
2018-Jul-20 04:00N 37°47' W 123°46'611.7
2018-Jul-20 03:30N 37°44' W 123°40'612.1
2018-Jul-20 03:00N 37°41' W 123°33'611.8
2018-Jul-20 02:30N 37°38' W 123°27'611.7
2018-Jul-20 02:00N 37°35' W 123°21'611.7
2018-Jul-20 01:30N 37°34' W 123°13'612.2
2018-Jul-20 01:00N 37°34' W 123°06'5 9.8
2018-Jul-20 00:30N 37°36' W 123°00'5 9.7
2018-Jul-20 00:00N 37°39' W 122°55'510.0
2018-Jul-19 23:30N 37°42' W 122°50'5 9.6
2018-Jul-19 23:00N 37°43' W 122°44'4 7.7
2018-Jul-19 22:30N 37°46' W 122°40'612.5
2018-Jul-19 22:00N 37°48' W 122°33'611.6
2018-Jul-19 21:30N 37°51' W 122°26'5 9.1
2018-Jul-19 21:00N 37°55' W 122°25'1 1.4
2018-Jul-19 20:30N 37°55' W 122°25'0 0.0
2018-Jul-19 20:00N 37°55' W 122°25'0 0.0
2018-Jul-19 19:30N 37°55' W 122°25'0 0.0
2018-Jul-19 19:00N 37°55' W 122°25'0 0.0
2018-Jul-19 18:27N 37°55' W 122°25'0 0.0
2018-Jul-19 17:57N 37°55' W 122°25'0 0.0
2018-Jul-19 17:30N 37°55' W 122°25'0 0.0
2018-Jul-19 17:00N 37°55' W 122°25'0 0.0
2018-Jul-19 16:30N 37°55' W 122°25'0 0.0
2018-Jul-19 16:00N 37°55' W 122°25'0 0.0
2018-Jul-19 15:30N 37°55' W 122°25'0 0.0
2018-Jul-19 15:00N 37°55' W 122°25'0 0.0
2018-Jul-19 14:30N 37°55' W 122°25'0 0.0
2018-Jul-19 13:27N 37°55' W 122°25'0 0.0
2018-Jul-19 13:00N 37°55' W 122°25'0 0.0
2018-Jul-19 12:30N 37°55' W 122°25'0 0.0
2018-Jul-19 12:00N 37°55' W 122°25'0 0.0
2018-Jul-19 11:30N 37°55' W 122°25'0 0.0
2018-Jul-19 11:00N 37°55' W 122°25'0 0.0
2018-Jul-19 10:30N 37°55' W 122°25'0 0.0
2018-Jul-19 10:00N 37°55' W 122°25'0 0.0
2018-Jul-19 09:27N 37°55' W 122°25'0 0.0
2018-Jul-19 09:00N 37°55' W 122°25'0 0.0
2018-Jul-19 08:30N 37°55' W 122°25'0 0.0
2018-Jul-19 07:57N 37°55' W 122°25'0 0.0
2018-Jul-19 07:30N 37°55' W 122°25'0 0.0
2018-Jul-19 07:00N 37°55' W 122°25'0 0.0
2018-Jul-19 06:30N 37°55' W 122°25'0 0.0
2018-Jul-19 06:00N 37°55' W 122°25'0 0.0
2018-Jul-19 05:30N 37°55' W 122°25'0 0.0
2018-Jul-19 05:00N 37°55' W 122°25'0 0.0
2018-Jul-19 04:30N 37°55' W 122°25'0 0.0
2018-Jul-19 04:00N 37°55' W 122°25'0 0.0
2018-Jul-19 03:30N 37°55' W 122°25'0 0.0
2018-Jul-19 03:00N 37°55' W 122°25'0 0.0
2018-Jul-19 02:30N 37°55' W 122°25'0 0.0
2018-Jul-19 02:00N 37°55' W 122°25'0 0.0
2018-Jul-19 01:30N 37°55' W 122°25'0 0.1
2018-Jul-19 01:00N 37°55' W 122°25'2 4.9
2018-Jul-19 00:30N 37°57' W 122°27'5 9.1
2018-Jul-19 00:00N 38°01' W 122°24'5 9.7
2018-Jul-18 23:30N 38°03' W 122°18'5 8.2
2018-Jul-18 22:57N 38°04' W 122°13'4 8.1
2018-Jul-18 22:30N 38°02' W 122°09'1 0.0
2018-Jul-17 14:46N 38°02' W 122°08'2 6.7
2018-Jul-17 14:27N 38°02' W 122°10'3 7.6
2018-Jul-17 14:00N 38°04' W 122°14'510.1
2018-Jul-17 13:30N 38°03' W 122°21'5 9.7
2018-Jul-17 13:00N 37°60' W 122°25'4 8.2
2018-Jul-17 12:30N 37°55' W 122°25'3 5.8
2018-Jul-17 12:00N 37°55' W 122°22'0 0.5
2018-Jul-17 11:28N 37°55' W 122°22'0 0.0
2018-Jul-17 10:58N 37°55' W 122°22'0 0.0
2018-Jul-17 10:25N 37°55' W 122°22'0 0.0
2018-Jul-17 09:58N 37°55' W 122°22'0 0.0
2018-Jul-17 09:28N 37°55' W 122°22'0 0.0
2018-Jul-17 08:55N 37°55' W 122°22'0 0.0
2018-Jul-17 08:28N 37°55' W 122°22'0 0.0
2018-Jul-17 07:58N 37°55' W 122°22'0 0.0
2018-Jul-17 07:28N 37°55' W 122°22'0 0.0
2018-Jul-17 06:58N 37°55' W 122°22'0 0.0
2018-Jul-17 06:25N 37°55' W 122°22'0 0.0
2018-Jul-17 05:58N 37°55' W 122°22'0 0.0
2018-Jul-17 05:28N 37°55' W 122°22'0 0.0
2018-Jul-17 04:58N 37°55' W 122°22'0 0.0
2018-Jul-17 04:28N 37°55' W 122°22'0 0.0
2018-Jul-17 03:58N 37°55' W 122°22'0 0.0
2018-Jul-17 03:28N 37°55' W 122°22'0 0.0
2018-Jul-17 02:58N 37°55' W 122°22'0 0.0
2018-Jul-17 02:28N 37°55' W 122°22'0 0.0
2018-Jul-17 01:58N 37°55' W 122°22'0 0.0
2018-Jul-17 01:28N 37°55' W 122°22'0 0.0
2018-Jul-17 00:58N 37°55' W 122°22'0 0.0
2018-Jul-17 00:28N 37°55' W 122°22'0 0.0
2018-Jul-16 23:28N 37°55' W 122°22'0 0.0
2018-Jul-16 22:58N 37°55' W 122°22'0 0.0
2018-Jul-16 22:28N 37°55' W 122°22'0 0.0
2018-Jul-16 21:58N 37°55' W 122°22'0 0.0
2018-Jul-16 21:28N 37°55' W 122°22'0 0.0
2018-Jul-16 20:58N 37°55' W 122°22'0 0.0
2018-Jul-16 20:25N 37°55' W 122°22'0 0.0
2018-Jul-16 19:58N 37°55' W 122°22'0 0.0
2018-Jul-16 19:28N 37°55' W 122°22'0 0.0
2018-Jul-16 18:58N 37°55' W 122°22'0 0.0
2018-Jul-16 18:28N 37°55' W 122°22'0 0.0
2018-Jul-16 17:55N 37°55' W 122°22'0 0.0
2018-Jul-16 17:28N 37°55' W 122°22'0 0.0
2018-Jul-16 16:58N 37°55' W 122°22'0 0.0
2018-Jul-16 16:28N 37°55' W 122°22'0 0.0
2018-Jul-16 15:58N 37°55' W 122°22'0 0.0
2018-Jul-16 15:28N 37°55' W 122°22'0 0.0
2018-Jul-16 14:58N 37°55' W 122°22'0 0.0
2018-Jul-16 14:28N 37°55' W 122°22'0 0.0
2018-Jul-16 13:55N 37°55' W 122°22'0 0.0
2018-Jul-16 13:28N 37°55' W 122°22'0 0.0
2018-Jul-16 12:58N 37°55' W 122°22'0 0.0
2018-Jul-16 12:28N 37°55' W 122°22'0 0.0
2018-Jul-16 11:58N 37°55' W 122°22'0 0.0
2018-Jul-16 11:28N 37°55' W 122°22'0 0.0
2018-Jul-16 10:58N 37°55' W 122°22'0 0.0
2018-Jul-16 10:28N 37°55' W 122°22'0 0.0
2018-Jul-16 09:58N 37°55' W 122°22'0 0.0
2018-Jul-16 09:28N 37°55' W 122°22'0 0.0
2018-Jul-16 08:58N 37°55' W 122°22'0 0.0
2018-Jul-16 08:28N 37°55' W 122°22'0 0.0
2018-Jul-16 07:58N 37°55' W 122°22'0 0.1
2018-Jul-16 07:30N 37°55' W 122°22'1 1.2
2018-Jul-16 07:00N 37°54' W 122°22'3 5.7
2018-Jul-16 06:30N 37°55' W 122°25'4 8.3
2018-Jul-16 06:00N 37°51' W 122°24'5 9.6
2018-Jul-16 05:30N 37°49' W 122°30'612.4
2018-Jul-16 05:00N 37°46' W 122°37'611.2
2018-Jul-16 04:30N 37°43' W 122°43'5 9.9
2018-Jul-16 04:00N 37°40' W 122°48'510.0
2018-Jul-16 03:30N 37°38' W 122°53'5 9.8
2018-Jul-16 03:00N 37°35' W 122°58'510.5
2018-Jul-16 02:31N 37°32' W 123°04'714.6
2018-Jul-16 02:00N 37°35' W 123°13'714.7
2018-Jul-16 01:31N 37°38' W 123°21'714.9
2018-Jul-16 01:01N 37°40' W 123°30'815.0
2018-Jul-16 00:31N 37°44' W 123°38'714.9
2018-Jul-16 00:01N 37°48' W 123°46'714.9
2018-Jul-15 23:31N 37°52' W 123°54'714.9
2018-Jul-15 23:00N 37°56' W 124°02'714.6
2018-Jul-15 22:30N 38°00' W 124°10'714.2
2018-Jul-15 22:00N 38°05' W 124°16'714.1
2018-Jul-15 21:30N 38°10' W 124°22'714.1
2018-Jul-15 21:00N 38°15' W 124°28'4 8.8
2018-Jul-15 20:30N 38°18' W 124°33'612.6
2018-Jul-15 20:00N 38°23' W 124°38'714.4
2018-Jul-15 19:30N 38°28' W 124°45'715.0
2018-Jul-15 19:00N 38°33' W 124°52'815.2
2018-Jul-15 18:30N 38°39' W 124°58'814.9
2018-Jul-15 18:00N 38°44' W 125°05'91471.4
2018-Jul-15 18:00N 38°36' W 125°00'1632.8 360 / 121017.010.8 15.013.315.6
2018-Jul-15 17:30N 38°49' W 125°11'714.3
2018-Jul-15 17:00N 38°55' W 125°17'715.0
2018-Jul-15 16:30N 39°03' W 125°18'814.9
2018-Jul-15 15:59N 39°10' W 125°20'914.4
2018-Jul-15 15:22N 39°19' W 125°22'514.9
2018-Jul-15 15:00N 39°24' W 125°23'1315.0
2018-Jul-15 14:08N 39°37' W 125°25'614.9
2018-Jul-15 13:46N 39°43' W 125°26'5715.4
2018-Jul-15 10:05N 40°39' W 125°36'415.4
2018-Jul-15 09:50N 40°43' W 125°37'515.1
2018-Jul-15 09:30N 40°48' W 125°37'1314.7
2018-Jul-15 08:36N 41°01' W 125°40'2515.4
2018-Jul-15 06:58N 41°26' W 125°45'714.9
2018-Jul-15 06:30N 41°32' W 125°46'3114.9
2018-Jul-15 04:27N 42°03' W 125°49'4015.1
2018-Jul-15 01:48N 42°43' W 125°50'515.1
2018-Jul-15 01:30N 42°47' W 125°51'1115.0
2018-Jul-15 00:44N 42°59' W 125°51'1015.1
2018-Jul-15 00:06N 43°08' W 125°52'115.3
2018-Jul-15 00:00N 43°10' W 125°52'1215.5
2018-Jul-14 23:13N 43°22' W 125°52'315.5
2018-Jul-14 23:00N 43°25' W 125°52'815.4
2018-Jul-14 22:30N 43°33' W 125°53'915.3
2018-Jul-14 21:56N 43°42' W 125°53'815.3
2018-Jul-14 21:25N 43°50' W 125°53'615.1
2018-Jul-14 21:00N 43°56' W 125°53'4715.3
2018-Jul-14 17:54N 44°43' W 125°54'1515.2
2018-Jul-14 16:55N 44°58' W 125°54'615.0
2018-Jul-14 16:30N 45°05' W 125°55'814.9
2018-Jul-14 15:59N 45°12' W 125°56'714.8
2018-Jul-14 15:30N 45°19' W 125°56'714.9
2018-Jul-14 15:00N 45°27' W 125°56'815.0
2018-Jul-14 14:30N 45°34' W 125°57'1515.1
2018-Jul-14 13:29N 45°50' W 125°57'714.8
2018-Jul-14 13:00N 45°57' W 125°57'715.1
2018-Jul-14 12:30N 46°04' W 125°57'1215.3
2018-Jul-14 11:42N 46°17' W 125°57'315.2
2018-Jul-14 11:31N 46°20' W 125°57'815.1
2018-Jul-14 11:00N 46°27' W 125°57'815.6
2018-Jul-14 10:30N 46°35' W 125°57'815.4
2018-Jul-14 09:58N 46°43' W 125°57'1115.3
2018-Jul-14 09:15N 46°54' W 125°58'415.2
2018-Jul-14 09:00N 46°58' W 125°58'815.0
2018-Jul-14 08:30N 47°05' W 125°58'815.1
2018-Jul-14 08:00N 47°13' W 125°58'815.1
2018-Jul-14 07:30N 47°21' W 125°59'815.1
2018-Jul-14 06:59N 47°28' W 125°58'715.1
2018-Jul-14 06:30N 47°36' W 125°58'714.6
2018-Jul-14 06:00N 47°42' W 125°52'2414.0
2018-Jul-14 04:19N 48°01' W 125°32'714.9
2018-Jul-14 03:53N 48°07' W 125°27'614.9
2018-Jul-14 03:29N 48°11' W 125°21'714.2
2018-Jul-14 03:00N 48°17' W 125°15'714.0
2018-Jul-14 02:30N 48°23' W 125°09'814.6
2018-Jul-14 01:58N 48°29' W 125°02'614.0
2018-Jul-14 01:30N 48°30' W 124°53'714.5
2018-Jul-14 01:00N 48°30' W 124°42'713.7
2018-Jul-14 00:30N 48°27' W 124°32'713.4
2018-Jul-14 00:00N 48°25' W 124°23'612.6
2018-Jul-13 23:30N 48°22' W 124°14'612.4
2018-Jul-13 23:00N 48°20' W 124°06'712.6
2018-Jul-13 22:29N 48°17' W 123°57'2811.3
2018-Jul-13 20:02N 48°10' W 123°16'114.4
2018-Jul-13 19:57N 48°11' W 123°15'614.5
2018-Jul-13 19:31N 48°16' W 123°09'713.6
2018-Jul-13 19:00N 48°20' W 123°00'714.2
2018-Jul-13 18:30N 48°23' W 122°51'611.6
2018-Jul-13 18:00N 48°28' W 122°45'713.4
2018-Jul-13 17:31N 48°34' W 122°45'713.2
2018-Jul-13 17:00N 48°41' W 122°43'713.4
2018-Jul-13 16:30N 48°47' W 122°46'3 6.3
2018-Jul-13 15:57N 48°51' W 122°46'  

Dump ship's entire track history